• Join FlightAware (Why Join?)
  • Login
  • US Flag GB Flag 
06:36 EDT


 

Airport Tracker/Info


-or-


 

Live Flight TrackerFlight Track Log ✈ N1250V ✈ 25-Jun-2013 ✈ KLUK - KACK

Flight Track Log - Related Links

Times and Time Zones

All times are in EDT time to prevent confusion due to time zone crossing. See the N1250V flight status page for this flight to view local times or setup timezone preferences in your user account.

Time Position Orientation Groundspeed Altitude Reporting Facility
EDT Latitude Longitude Course Direction KTS MPH feet Rate Location/Type
09:52 39.0833 -84.4167 159° South 139 160 1,100  Level Cincinnati TRACON
09:54 39.0167 -84.3833 159° South 221 254 3,400 1,500 Climbing Cincinnati TRACON
09:55 38.9667 -84.3500 153° Southeast 230 265 4,800 780 Climbing Cincinnati TRACON
09:56 38.9333 -84.2667 117° Southeast 248 285 4,900 300 Climbing Cincinnati TRACON
09:57 38.9228 -84.2292 110° East 249 287 5,400 1,620 Climbing Indianapolis Center
09:58 38.9033 -84.1447 106° East 247 284 7,700 1,980 Climbing Indianapolis Center
09:59 38.8883 -84.0606 103° East 242 278 9,600 1,740 Climbing Indianapolis Center
10:00 38.8714 -83.9758 104° East 243 280 11,400 1,800 Climbing Indianapolis Center
10:01 38.8528 -83.8722 103° East 254 292 13,400 1,740 Climbing Indianapolis Center
10:02 38.8289 -83.7886 110° East 252 290 15,000 1,500 Climbing Indianapolis Center
10:03 38.8019 -83.7028 112° Southeast 257 296 16,600 1,500 Climbing Indianapolis Center
10:04 38.7833 -83.6133 105° East 258 297 18,200 1,140 Climbing Indianapolis Center
10:05 38.7639 -83.5219 105° East 264 304 19,000 540 Climbing Indianapolis Center
10:06 38.7400 -83.4136 106° East 309 356 19,400 600 Climbing Indianapolis Center
10:07 38.7150 -83.3006 106° East 325 374 20,300 900 Climbing Indianapolis Center
10:08 38.6864 -83.1692 106° East 327 376 21,300 840 Climbing Indianapolis Center
10:09 38.6636 -83.0675 106° East 328 377 22,100 840 Climbing Indianapolis Center
10:10 38.6494 -82.9544 99° East 325 374 23,100 960 Climbing Indianapolis Center
10:11 38.6892 -82.8256 68° East 327 376 24,100 960 Climbing Indianapolis Center
10:12 38.7222 -82.7192 68° East 322 371 25,100 900 Climbing Indianapolis Center
10:13 38.7553 -82.6125 68° East 322 371 26,000 900 Climbing Indianapolis Center
10:14 38.7878 -82.5072 68° East 317 365 27,000 900 Climbing Indianapolis Center
10:15 38.8192 -82.4036 69° East 314 361 27,900 840 Climbing Indianapolis Center
10:16 38.8503 -82.3003 69° East 311 358 28,800 720 Climbing Indianapolis Center
10:17 38.8825 -82.1953 68° East 313 360 29,400 600 Climbing Indianapolis Center
10:18 38.9203 -82.0681 69° East 318 366 30,100 600 Climbing Indianapolis Center
10:19 38.9528 -81.9606 69° East 321 369 30,700 600 Climbing Indianapolis Center
10:20 38.9850 -81.8522 69° East 323 372 31,400 600 Climbing Indianapolis Center
10:21 39.0172 -81.7456 69° East 320 368 32,000 540 Climbing Indianapolis Center
10:22 39.0486 -81.6389 69° East 317 365 32,600 480 Climbing Indianapolis Center
10:23 39.0797 -81.5325 69° East 317 365 33,000 180 Climbing Indianapolis Center
10:24 39.1131 -81.4222 69° East 323 372 33,000  Level Indianapolis Center
10:25 39.1456 -81.3069 70° East 337 388 33,000  Level Indianapolis Center
10:27 39.1867 -81.1658 69° East 348 400 33,000  Level Indianapolis Center
10:28 39.2211 -81.0472 69° East 351 404 33,000  Level Indianapolis Center
10:29 39.2561 -80.9278 69° East 354 407 33,000  Level Indianapolis Center
10:30 39.2894 -80.8072 70° East 355 409 33,000  Level Indianapolis Center
10:31 39.3242 -80.6864 70° East 356 410 33,000  Level Indianapolis Center
10:32 39.3586 -80.5658 70° East 356 410 33,000  Level Indianapolis Center
10:33 39.3925 -80.4442 70° East 359 413 33,000  Level Indianapolis Center
10:34 39.4339 -80.2978 70° East 360 414 33,000  Level Indianapolis Center
10:35 39.4678 -80.1761 70° East 359 413 33,000  Level Indianapolis Center
10:36 39.5019 -80.0525 70° East 362 417 33,000  Level Indianapolis Center
10:37 39.5381 -79.9289 69° East 348 400 33,000  Level Cleveland Center
10:38 39.5683 -79.8075 72° East 348 400 33,000  Level Cleveland Center
10:39 39.5883 -79.6808 78° East 348 400 33,000  Level Cleveland Center
10:40 39.6103 -79.5539 77° East 354 407 33,000  Level Cleveland Center
10:41 39.6339 -79.4267 76° East 354 407 33,000  Level Cleveland Center
10:42 39.6597 -79.3022 75° East 354 407 33,000  Level Cleveland Center
10:43 39.6875 -79.1775 74° East 354 407 33,000  Level Cleveland Center
10:45 39.7464 -78.9064 74° East 364 419 33,000  Level Cleveland Center
10:46 39.7714 -78.7789 76° East 364 419 33,000  Level Cleveland Center
10:47 39.7944 -78.6539 76° East 358 412 33,000  Level Cleveland Center
10:48 39.8192 -78.5261 76° East 358 412 33,000  Level Cleveland Center
10:49 39.8461 -78.3983 75° East 358 412 33,000  Level Cleveland Center
10:51 39.8967 -78.1611 74° East 359 413 33,000  Level New York Center
10:52 39.9231 -78.0367 75° East 359 413 33,000  Level New York Center
10:53 39.9456 -77.9089 77° East 359 413 33,000  Level New York Center
10:54 39.9719 -77.7817 75° East 354 407 33,000  Level New York Center
10:55 39.9981 -77.6542 75° East 354 407 33,000  Level New York Center
10:56 40.0219 -77.5317 76° East 354 407 33,000  Level New York Center
10:57 40.0458 -77.4039 76° East 354 407 33,000  Level New York Center
10:58 40.0717 -77.2761 75° East 354 407 33,000  Level New York Center
10:59 40.1056 -77.1544 70° East 354 407 33,000  Level New York Center
11:00 40.1383 -77.0486 68° East 354 407 33,000  Level New York Center
11:01 40.1658 -76.9233 74° East 354 407 33,000  Level New York Center
11:02 40.1886 -76.8006 76° East 354 407 33,000  Level New York Center
11:03 40.2119 -76.6692 77° East 354 407 33,000  Level New York Center
11:04 40.2347 -76.5461 76° East 354 407 33,000  Level New York Center
11:05 40.2578 -76.4147 77° East 354 407 33,000  Level New York Center
11:06 40.2803 -76.2942 76° East 354 407 33,000  Level New York Center
11:07 40.3056 -76.1517 77° East 354 407 33,000  Level New York Center
11:08 40.3281 -76.0200 77° East 354 407 33,000  Level New York Center
11:09 40.3525 -75.8939 76° East 354 407 33,000  Level New York Center
11:10 40.3725 -75.7675 78° East 354 407 33,000  Level New York Center
11:11 40.3919 -75.6489 78° East 354 407 33,000  Level New York Center
11:12 40.4139 -75.5222 77° East 354 407 33,000  Level New York Center
11:13 40.4361 -75.3792 78° East 354 407 33,000  Level New York Center
11:14 40.4597 -75.2528 76° East 359 413 33,000  Level New York Center
11:15 40.4789 -75.1367 78° East 364 419 33,000  Level New York Center
11:16 40.5022 -75.0042 77° East 364 419 33,000  Level New York Center
11:17 40.5236 -74.8772 77° East 364 419 33,000  Level New York Center
11:18 40.5469 -74.7367 78° East 364 419 33,000  Level New York Center
11:19 40.5656 -74.6175 78° East 364 419 33,000  Level New York Center
11:20 40.5889 -74.4767 78° East 364 419 33,000  Level New York Center
11:21 40.6069 -74.3603 78° East 371 427 33,000  Level New York Center
11:23 40.5900 -74.0769 94° East 357 411 33,000  Level Boston Center
11:24 40.5794 -73.9456 96° East 357 411 33,000  Level Boston Center
11:25 40.5686 -73.8142 96° East 363 418 33,000  Level Boston Center
11:26 40.5556 -73.6803 97° East 368 423 33,000  Level Boston Center
11:27 40.5589 -73.5492 88° East 368 423 33,000  Level Boston Center
11:28 40.5956 -73.4322 68° East 356 410 33,000  Level Boston Center
11:29 40.6214 -73.3042 75° East 351 404 33,000  Level Boston Center
11:30 40.6475 -73.1786 75° East 351 404 33,000 -60 Level Boston Center
11:31 40.6711 -73.0558 76° East 351 404 32,900 -660 Descending Boston Center
11:32 40.6989 -72.9272 74° East 351 404 31,700 -1,380 Descending Boston Center
11:33 40.7244 -72.7850 77° East 368 423 30,200 -1,500 Descending Boston Center
11:34 40.7600 -72.6428 72° East 388 447 28,800 -1,500 Descending Boston Center
11:35 40.7872 -72.5031 76° East 394 453 27,300 -1,500 Descending Boston Center
11:36 40.8167 -72.3633 74° East 394 453 25,800 -1,500 Descending Boston Center
11:37 40.8414 -72.2317 76° East 378 435 24,400 -1,500 Descending Boston Center
11:38 40.8681 -72.1025 75° East 373 429 22,900 -1,320 Descending Boston Center
11:39 40.8928 -71.9789 75° East 360 414 21,800 -1,200 Descending Boston Center
11:40 40.9150 -71.8606 76° East 344 396 20,600 -1,020 Descending Boston Center
11:41 40.9017 -71.7233 97° East 344 396 19,800 -1,080 Descending Boston Center
11:42 40.8925 -71.6000 96° East 351 404 18,500 -1,380 Descending Boston Center
11:43 40.8978 -71.4708 87° East 357 411 17,100 -1,380 Descending Boston Center
11:44 40.9406 -71.3547 64° Northeast 344 396 15,800 -1,320 Descending Boston Center
11:45 40.9789 -71.2414 66° East 338 389 14,500 -1,260 Descending Boston Center
11:46 41.0175 -71.1472 61° Northeast 330 380 13,300 -1,440 Descending Boston Center
11:47 41.0578 -71.0197 67° East 315 362 11,700 -1,200 Descending Boston Center
11:48 41.0833 -70.9200 71° East 301 346 10,900 -900 Descending Boston Center
11:49 41.0819 -70.8100 91° East 294 338 9,900 -1,140 Descending Boston Center
11:50 41.0822 -70.6969 90° East 294 338 8,700 -1,140 Descending Boston Center
11:51 41.0867 -70.5811 87° East 299 344 7,700 -1,080 Descending Boston Center
11:52 41.0933 -70.4764 85° East 299 344 6,600 -1,260 Descending Boston Center
11:53 41.1125 -70.3875 74° East 286 329 5,200 -1,500 Descending Boston Center
11:54 41.1294 -70.2878 77° East 279 321 3,700 -1,140 Descending Boston Center
11:55 41.1442 -70.1964 78° East 268 308 3,000 -600 Descending Boston Center
11:56 41.1783 -70.1317 55° Northeast 244 281 2,600 -600 Descending Boston Center
11:57 41.2150 -70.0808 46° Northeast 213 245 1,800 -600 Descending Boston Center
11:58 41.2472 -70.0353 47° Northeast 184 212 1,500 -360 Descending Boston Center
11:59 41.2758 -70.0039 40° Northeast 154 177 1,100 -480 Descending Boston Center
12:00 41.2744 -70.0400 267° West 41 47 500 -480 Descending Boston Center
12:01 41.2728 -70.0567 262° West 35 40 200 -300 Descending Boston Center
12:03 41.2500 -70.0500 317° Northwest  Level FlightAware Approximate